Time;durP1;ratioP1;P1;durP2;ratioP2;P2;SDS_P1;SDS_P2;PMS_P1;PMS_P2;Temp;Humidity;BMP_temperature;BMP_pressure;BME280_temperature;BME280_humidity;BME280_pressure;Samples;Min_cycle;Max_cycle;Signal;HPM_P1;HPM_P2
2023/08/08 00:01:59;;;;;;;;;4.00;2.75;;;;;;;;4846272;29;45353;-64
2023/08/08 00:04:24;;;;;;;;;6.00;3.00;;;;;;;;4845546;29;45497;-65
2023/08/08 00:06:49;;;;;;;;;3.25;1.25;;;;;;;;4846350;29;45342;-65
2023/08/08 00:09:14;;;;;;;;;1.50;1.25;;;;;;;;4845846;29;46351;-65
2023/08/08 00:11:39;;;;;;;;;2.00;2.00;;;;;;;;4846126;29;45347;-65
2023/08/08 00:14:05;;;;;;;;;2.75;2.00;;;;;;;;4846270;29;45459;-65
2023/08/08 00:16:30;;;;;;;;;3.00;1.50;;;;;;;;4845529;29;45459;-65
2023/08/08 00:18:55;;;;;;;;;3.00;3.00;;;;;;;;4845993;29;45486;-65
2023/08/08 00:21:21;;;;;;;;;1.25;1.25;;;;;;;;4845923;29;45403;-65
2023/08/08 00:23:46;;;;;;;;;2.00;2.00;;;;;;;;4845898;29;45301;-65
2023/08/08 00:26:11;;;;;;;;;7.25;2.25;;;;;;;;4845713;29;45369;-65
2023/08/08 00:28:36;;;;;;;;;3.25;3.25;;;;;;;;4845732;29;45471;-65
2023/08/08 00:31:02;;;;;;;;;5.50;2.00;;;;;;;;4846005;29;45598;-65
2023/08/08 00:33:27;;;;;;;;;2.00;2.00;;;;;;;;4846025;29;45513;-65
2023/08/08 00:35:52;;;;;;;;;2.00;2.00;;;;;;;;4845678;29;45339;-65
2023/08/08 00:38:18;;;;;;;;;4.00;2.00;;;;;;;;4845470;29;46274;-65
2023/08/08 00:40:43;;;;;;;;;3.00;2.00;;;;;;;;4845350;29;45511;-65
2023/08/08 00:43:09;;;;;;;;;3.00;2.00;;;;;;;;4845207;29;45313;-65
2023/08/08 00:45:34;;;;;;;;;2.75;2.50;;;;;;;;4846024;29;45508;-65
2023/08/08 00:48:00;;;;;;;;;2.75;2.75;;;;;;;;4845225;29;46570;-65
2023/08/08 00:50:25;;;;;;;;;3.50;1.00;;;;;;;;4845523;29;45393;-65
2023/08/08 00:52:50;;;;;;;;;3.00;2.00;;;;;;;;4845522;29;45333;-65
2023/08/08 00:55:16;;;;;;;;;6.25;2.00;;;;;;;;4845758;29;45392;-65
2023/08/08 00:57:41;;;;;;;;;5.75;3.00;;;;;;;;4844797;29;46131;-65
2023/08/08 01:00:09;;;;;;;;;3.50;2.25;;;;;;;;4845474;29;45377;-65
2023/08/08 01:02:34;;;;;;;;;6.00;3.25;;;;;;;;4845271;29;45289;-65
2023/08/08 01:04:59;;;;;;;;;3.00;2.50;;;;;;;;4845468;29;45301;-65
2023/08/08 01:07:25;;;;;;;;;4.00;2.00;;;;;;;;4844599;29;46476;-65
2023/08/08 01:09:56;;;;;;;;;4.00;3.50;;;;;;;;4844992;29;45258;-65
2023/08/08 01:12:23;;;;;;;;;2.50;2.50;;;;;;;;4845250;29;45442;-65
2023/08/08 01:14:49;;;;;;;;;7.25;3.00;;;;;;;;4845415;29;45467;-65
2023/08/08 01:17:15;;;;;;;;;6.50;2.00;;;;;;;;4844972;29;46362;-64
2023/08/08 01:19:41;;;;;;;;;5.00;2.75;;;;;;;;4844797;29;45297;-65
2023/08/08 01:22:08;;;;;;;;;3.00;3.00;;;;;;;;4845181;29;45398;-65
2023/08/08 01:24:36;;;;;;;;;4.50;2.00;;;;;;;;4844989;29;45427;-65
2023/08/08 01:27:02;;;;;;;;;5.25;2.25;;;;;;;;4844912;29;46411;-65
2023/08/08 01:29:28;;;;;;;;;2.00;2.00;;;;;;;;4844347;29;45414;-65
2023/08/08 01:31:53;;;;;;;;;4.25;2.00;;;;;;;;4845148;29;45378;-65
2023/08/08 01:34:19;;;;;;;;;3.50;3.50;;;;;;;;4845146;29;45300;-65
2023/08/08 01:36:48;;;;;;;;;4.00;3.00;;;;;;;;4844668;29;46564;-65
2023/08/08 01:39:16;;;;;;;;;5.75;2.00;;;;;;;;4844269;29;45400;-65
2023/08/08 01:41:42;;;;;;;;;2.00;2.00;;;;;;;;4844976;29;45347;-65
2023/08/08 01:44:08;;;;;;;;;5.00;3.00;;;;;;;;4844988;29;45382;-65
2023/08/08 01:46:33;;;;;;;;;2.25;2.00;;;;;;;;4844478;29;47360;-65
2023/08/08 01:48:59;;;;;;;;;2.75;2.00;;;;;;;;4844410;29;45416;-65
2023/08/08 01:51:25;;;;;;;;;2.50;2.00;;;;;;;;4844534;29;45413;-65
2023/08/08 01:53:50;;;;;;;;;3.50;1.00;;;;;;;;4844850;29;45622;-65
2023/08/08 01:56:16;;;;;;;;;1.75;1.00;;;;;;;;4844186;29;47396;-65
2023/08/08 01:58:41;;;;;;;;;2.00;2.00;;;;;;;;4844725;29;45373;-65
2023/08/08 02:01:06;;;;;;;;;4.00;2.25;;;;;;;;4844182;29;45321;-65
2023/08/08 02:03:31;;;;;;;;;5.00;3.00;;;;;;;;4844938;29;45271;-65
2023/08/08 02:05:56;;;;;;;;;4.75;2.00;;;;;;;;4844391;29;46501;-65
2023/08/08 02:08:22;;;;;;;;;5.25;3.25;;;;;;;;4844169;29;45314;-65
2023/08/08 02:10:47;;;;;;;;;3.00;1.75;;;;;;;;4844008;29;45408;-64
2023/08/08 02:13:12;;;;;;;;;2.00;2.00;;;;;;;;4844819;29;45430;-65
2023/08/08 02:15:37;;;;;;;;;2.75;2.75;;;;;;;;4844315;29;46710;-64
2023/08/08 02:18:03;;;;;;;;;6.25;1.75;;;;;;;;4844356;29;45326;-64
2023/08/08 02:20:29;;;;;;;;;6.00;3.00;;;;;;;;4844102;29;45377;-65
2023/08/08 02:22:54;;;;;;;;;2.50;2.50;;;;;;;;4844202;29;45397;-65
2023/08/08 02:25:19;;;;;;;;;2.50;2.00;;;;;;;;4844058;29;46642;-65
2023/08/08 02:27:45;;;;;;;;;5.00;3.00;;;;;;;;4844407;29;45251;-65
2023/08/08 02:30:10;;;;;;;;;3.50;2.00;;;;;;;;4844297;29;45537;-65
2023/08/08 02:32:35;;;;;;;;;5.25;2.50;;;;;;;;4843941;29;45422;-65
2023/08/08 02:35:01;;;;;;;;;2.00;2.00;;;;;;;;4844201;29;45525;-65
2023/08/08 02:37:26;;;;;;;;;1.00;1.00;;;;;;;;4844066;29;45456;-65
2023/08/08 02:39:51;;;;;;;;;2.00;2.00;;;;;;;;4844416;29;45368;-65
2023/08/08 02:42:16;;;;;;;;;2.00;2.00;;;;;;;;4843754;29;45349;-65
2023/08/08 02:44:42;;;;;;;;;2.25;2.00;;;;;;;;4844139;29;45325;-65
2023/08/08 02:47:07;;;;;;;;;2.50;1.00;;;;;;;;4844081;29;45459;-66
2023/08/08 02:49:33;;;;;;;;;3.50;2.25;;;;;;;;4844068;29;45158;-65
2023/08/08 02:51:58;;;;;;;;;3.50;2.75;;;;;;;;4843930;29;45553;-65
2023/08/08 02:54:23;;;;;;;;;3.00;1.75;;;;;;;;4843254;29;45433;-65
2023/08/08 02:56:49;;;;;;;;;7.25;2.75;;;;;;;;4843974;29;45395;-65
2023/08/08 02:59:14;;;;;;;;;5.00;2.00;;;;;;;;4843974;29;45308;-66
2023/08/08 03:01:39;;;;;;;;;2.50;1.75;;;;;;;;4844203;29;45337;-65
2023/08/08 03:04:05;;;;;;;;;6.25;3.00;;;;;;;;4843282;29;45452;-65
2023/08/08 03:06:30;;;;;;;;;5.25;4.00;;;;;;;;4845685;29;45452;-65
2023/08/08 03:08:55;;;;;;;;;2.00;2.00;;;;;;;;4847014;29;45177;-64
2023/08/08 03:11:20;;;;;;;;;7.25;2.75;;;;;;;;4846886;29;45608;-65
2023/08/08 03:13:46;;;;;;;;;2.75;1.50;;;;;;;;4846307;29;46482;-65
2023/08/08 03:16:11;;;;;;;;;2.25;2.00;;;;;;;;4846887;29;45226;-64
2023/08/08 03:18:36;;;;;;;;;8.00;3.00;;;;;;;;4846822;29;45528;-64
2023/08/08 03:21:01;;;;;;;;;2.50;1.75;;;;;;;;4847059;29;45186;-64
2023/08/08 03:23:26;;;;;;;;;7.00;4.00;;;;;;;;4846577;29;46445;-64
2023/08/08 03:25:52;;;;;;;;;1.75;1.75;;;;;;;;4846225;29;45622;-65
2023/08/08 03:28:17;;;;;;;;;4.00;1.75;;;;;;;;4846688;29;45382;-64
2023/08/08 03:30:42;;;;;;;;;1.50;1.50;;;;;;;;4846860;29;45462;-64
2023/08/08 03:33:07;;;;;;;;;4.00;2.75;;;;;;;;4846742;29;45460;-64
2023/08/08 03:35:32;;;;;;;;;7.50;3.00;;;;;;;;4846133;29;45218;-65
2023/08/08 03:37:58;;;;;;;;;3.75;1.75;;;;;;;;4846613;29;45306;-65
2023/08/08 03:40:23;;;;;;;;;1.75;1.75;;;;;;;;4846519;29;45369;-64
2023/08/08 03:42:48;;;;;;;;;5.50;3.00;;;;;;;;4846293;29;46386;-65
2023/08/08 03:45:13;;;;;;;;;4.75;3.75;;;;;;;;4846197;29;45278;-64
2023/08/08 03:47:38;;;;;;;;;6.00;2.50;;;;;;;;4846598;29;45169;-64
2023/08/08 03:50:05;;;;;;;;;3.50;3.50;;;;;;;;4846945;29;45303;-64
2023/08/08 03:52:31;;;;;;;;;3.25;3.00;;;;;;;;4846047;29;47912;-64
2023/08/08 03:54:56;;;;;;;;;14.67;9.67;;;;;;;;4845815;29;45815;-64
2023/08/08 03:57:21;;;;;;;;;5.00;3.25;;;;;;;;4845996;29;45516;-65
2023/08/08 03:59:46;;;;;;;;;3.75;3.00;;;;;;;;4846391;29;45486;-65
2023/08/08 04:02:11;;;;;;;;;1.75;1.75;;;;;;;;4846250;29;45445;-64
2023/08/08 04:04:38;;;;;;;;;2.00;2.00;;;;;;;;4846100;29;45400;-64
2023/08/08 04:07:03;;;;;;;;;6.75;2.75;;;;;;;;4845376;29;45411;-65
2023/08/08 04:09:29;;;;;;;;;8.50;3.00;;;;;;;;4846305;29;45315;-64
2023/08/08 04:11:54;;;;;;;;;4.75;3.00;;;;;;;;4845850;29;46439;-65
2023/08/08 04:14:19;;;;;;;;;5.00;3.25;;;;;;;;4846069;29;45503;-65
2023/08/08 04:16:44;;;;;;;;;3.00;2.00;;;;;;;;4844860;29;45373;-65
2023/08/08 04:19:09;;;;;;;;;8.00;6.00;;;;;;;;4845772;29;45409;-65
2023/08/08 04:21:35;;;;;;;;;5.00;3.50;;;;;;;;4845905;29;45483;-64
2023/08/08 04:24:00;;;;;;;;;5.75;2.50;;;;;;;;4845881;29;45459;-64
2023/08/08 04:26:26;;;;;;;;;8.75;3.00;;;;;;;;4845789;29;45460;-64
2023/08/08 04:28:51;;;;;;;;;5.25;2.50;;;;;;;;4845887;29;45615;-64
2023/08/08 04:31:16;;;;;;;;;3.50;3.50;;;;;;;;4845765;29;45478;-64
2023/08/08 04:33:41;;;;;;;;;7.25;3.75;;;;;;;;4845941;29;45329;-65
2023/08/08 04:36:07;;;;;;;;;3.25;2.50;;;;;;;;4845919;29;45284;-64
2023/08/08 04:38:32;;;;;;;;;2.75;2.75;;;;;;;;4845558;29;45220;-65
2023/08/08 04:40:57;;;;;;;;;2.00;2.00;;;;;;;;4845304;29;46475;-65
2023/08/08 04:43:22;;;;;;;;;3.00;1.75;;;;;;;;4845516;29;45356;-65
2023/08/08 04:45:47;;;;;;;;;5.00;2.00;;;;;;;;4845868;29;45337;-64
2023/08/08 04:48:13;;;;;;;;;13.67;11.67;;;;;;;;4845169;29;45294;-65
2023/08/08 04:50:39;;;;;;;;;4.25;3.50;;;;;;;;4845556;29;46241;-65
2023/08/08 04:53:04;;;;;;;;;6.50;6.50;;;;;;;;4845550;29;45316;-64
2023/08/08 04:55:29;;;;;;;;;6.50;3.25;;;;;;;;4845251;29;45423;-64
2023/08/08 04:57:54;;;;;;;;;3.75;3.00;;;;;;;;4845692;29;45340;-65
2023/08/08 05:00:19;;;;;;;;;5.25;2.75;;;;;;;;4844816;29;45436;-64
2023/08/08 05:02:44;;;;;;;;;6.00;3.00;;;;;;;;4845337;29;45351;-65
2023/08/08 05:05:10;;;;;;;;;3.00;2.75;;;;;;;;4845421;29;45367;-65
2023/08/08 05:07:37;;;;;;;;;24.00;23.00;;;;;;;;4845333;29;45417;-65
2023/08/08 05:10:02;;;;;;;;;7.50;3.75;;;;;;;;4844538;29;47386;-65
2023/08/08 05:12:28;;;;;;;;;5.50;1.75;;;;;;;;4845031;29;45310;-65
2023/08/08 05:14:53;;;;;;;;;6.00;2.75;;;;;;;;4845295;29;45274;-65
2023/08/08 05:17:18;;;;;;;;;1.75;1.50;;;;;;;;4845423;29;45306;-65
2023/08/08 05:19:43;;;;;;;;;2.75;2.75;;;;;;;;4844543;29;45617;-64
2023/08/08 05:22:08;;;;;;;;;10.33;7.67;;;;;;;;4845035;29;45264;-64
2023/08/08 05:24:35;;;;;;;;;7.67;4.67;;;;;;;;4845014;29;45302;-65
2023/08/08 05:27:00;;;;;;;;;12.00;9.33;;;;;;;;4845136;29;45457;-64
2023/08/08 05:29:25;;;;;;;;;3.00;3.00;;;;;;;;4844320;29;47560;-64
2023/08/08 05:31:51;;;;;;;;;8.75;5.00;;;;;;;;4844823;29;45315;-65
2023/08/08 05:34:17;;;;;;;;;8.67;7.67;;;;;;;;4844846;29;45322;-65
2023/08/08 05:36:42;;;;;;;;;3.00;3.00;;;;;;;;4845206;29;45442;-64
2023/08/08 05:39:07;;;;;;;;;5.00;3.25;;;;;;;;4844882;29;45341;-64
2023/08/08 05:41:33;;;;;;;;;3.50;1.25;;;;;;;;4844212;29;45525;-64
2023/08/08 05:43:58;;;;;;;;;4.00;2.50;;;;;;;;4844910;29;45216;-64
2023/08/08 05:46:23;;;;;;;;;5.00;3.00;;;;;;;;4844939;29;45164;-64
2023/08/08 05:48:48;;;;;;;;;1.75;1.75;;;;;;;;4844681;29;45468;-64
2023/08/08 05:51:13;;;;;;;;;3.00;2.00;;;;;;;;4844402;29;45367;-65
2023/08/08 05:53:39;;;;;;;;;2.50;2.25;;;;;;;;4844871;29;45496;-65
2023/08/08 05:56:04;;;;;;;;;4.50;3.25;;;;;;;;4844880;29;45308;-64
2023/08/08 05:58:29;;;;;;;;;3.50;2.25;;;;;;;;4844492;29;46206;-64
2023/08/08 06:00:55;;;;;;;;;1.75;1.75;;;;;;;;4844094;29;45313;-64
2023/08/08 06:03:20;;;;;;;;;9.00;6.33;;;;;;;;4844514;29;45442;-64
2023/08/08 06:05:45;;;;;;;;;5.00;2.75;;;;;;;;4844821;29;45337;-64
2023/08/08 06:08:11;;;;;;;;;3.00;1.75;;;;;;;;4844147;29;45454;-64
2023/08/08 06:10:36;;;;;;;;;3.25;2.75;;;;;;;;4844207;29;45320;-64
2023/08/08 06:13:02;;;;;;;;;5.25;3.75;;;;;;;;4843894;29;45733;-64
2023/08/08 06:15:27;;;;;;;;;3.50;2.50;;;;;;;;4844666;29;45404;-65
2023/08/08 06:17:52;;;;;;;;;2.50;1.50;;;;;;;;4844075;29;46534;-65
2023/08/08 06:20:18;;;;;;;;;4.50;3.25;;;;;;;;4843962;29;45469;-64
2023/08/08 06:22:43;;;;;;;;;6.50;2.25;;;;;;;;4844018;29;45384;-64
2023/08/08 06:25:08;;;;;;;;;4.25;3.00;;;;;;;;4844247;29;45388;-64
2023/08/08 06:27:33;;;;;;;;;5.00;5.00;;;;;;;;4844143;29;46419;-64
2023/08/08 06:29:59;;;;;;;;;2.00;1.00;;;;;;;;4844319;29;45342;-64
2023/08/08 06:32:24;;;;;;;;;4.25;2.25;;;;;;;;4843854;29;45481;-64
2023/08/08 06:34:49;;;;;;;;;5.00;5.00;;;;;;;;4844223;29;45431;-64
2023/08/08 06:37:14;;;;;;;;;8.00;3.25;;;;;;;;4844166;29;46465;-65
2023/08/08 06:39:40;;;;;;;;;9.75;3.50;;;;;;;;4843975;29;45394;-64
2023/08/08 06:42:05;;;;;;;;;8.00;6.00;;;;;;;;4846926;29;45421;-64
2023/08/08 06:44:32;;;;;;;;;4.00;3.00;;;;;;;;4846761;29;45356;-64
2023/08/08 06:46:57;;;;;;;;;2.50;2.50;;;;;;;;4847221;29;45598;-64
2023/08/08 06:49:22;;;;;;;;;3.75;2.00;;;;;;;;4847287;29;45361;-64
2023/08/08 06:51:47;;;;;;;;;6.00;3.25;;;;;;;;4847247;29;45314;-64
2023/08/08 06:54:13;;;;;;;;;7.25;3.00;;;;;;;;4846970;29;45283;-65
2023/08/08 06:56:38;;;;;;;;;3.00;1.50;;;;;;;;4846774;29;46297;-64
2023/08/08 06:59:03;;;;;;;;;4.00;2.75;;;;;;;;4847171;29;45399;-64
2023/08/08 07:01:28;;;;;;;;;5.75;3.00;;;;;;;;4847357;29;45306;-64
2023/08/08 07:03:54;;;;;;;;;2.00;2.00;;;;;;;;4846945;29;45551;-65
2023/08/08 07:06:19;;;;;;;;;2.75;2.75;;;;;;;;4846580;29;46482;-65
2023/08/08 07:08:44;;;;;;;;;3.50;2.00;;;;;;;;4847018;29;45309;-64
2023/08/08 07:11:10;;;;;;;;;4.00;2.00;;;;;;;;4847007;29;45385;-64
2023/08/08 07:13:35;;;;;;;;;4.25;2.50;;;;;;;;4847323;29;45354;-64
2023/08/08 07:16:00;;;;;;;;;3.25;3.00;;;;;;;;4846370;29;45414;-64
2023/08/08 07:18:26;;;;;;;;;5.25;3.00;;;;;;;;4846520;29;45307;-65
2023/08/08 07:20:51;;;;;;;;;4.75;2.25;;;;;;;;4846711;29;45827;-64
2023/08/08 07:23:16;;;;;;;;;2.00;2.00;;;;;;;;4847145;29;45284;-64
2023/08/08 07:25:42;;;;;;;;;4.75;3.00;;;;;;;;4846159;29;46360;-65
2023/08/08 07:28:07;;;;;;;;;5.50;3.00;;;;;;;;4846670;29;45479;-64
2023/08/08 07:30:32;;;;;;;;;5.00;2.00;;;;;;;;4845901;29;45400;-64
2023/08/08 07:32:57;;;;;;;;;1.75;1.00;;;;;;;;4847209;29;45349;-64
2023/08/08 07:35:22;;;;;;;;;2.00;1.50;;;;;;;;4846091;29;46590;-64
2023/08/08 07:37:48;;;;;;;;;6.00;2.25;;;;;;;;4846674;29;45488;-65
2023/08/08 07:40:14;;;;;;;;;1.75;1.75;;;;;;;;4846340;29;45372;-65
2023/08/08 07:42:39;;;;;;;;;2.25;2.00;;;;;;;;4846340;29;45303;-64
2023/08/08 07:45:04;;;;;;;;;5.50;2.00;;;;;;;;4846603;29;45432;-64
2023/08/08 07:47:30;;;;;;;;;1.00;1.00;;;;;;;;4845856;29;45306;-64
2023/08/08 07:49:55;;;;;;;;;3.00;2.00;;;;;;;;4846767;29;45368;-64
2023/08/08 07:52:20;;;;;;;;;4.00;4.00;;;;;;;;4846229;29;45370;-64
2023/08/08 07:54:45;;;;;;;;;2.00;2.00;;;;;;;;4846161;29;45658;-65
2023/08/08 07:57:10;;;;;;;;;6.50;2.75;;;;;;;;4845786;29;45343;-64
2023/08/08 07:59:36;;;;;;;;;8.33;6.00;;;;;;;;4846217;29;45421;-64
2023/08/08 08:02:01;;;;;;;;;1.75;1.75;;;;;;;;4846449;29;45357;-64
2023/08/08 08:04:26;;;;;;;;;3.00;2.00;;;;;;;;4845776;29;47375;-64
2023/08/08 08:06:51;;;;;;;;;1.50;1.25;;;;;;;;4844982;29;45789;-64
2023/08/08 08:09:17;;;;;;;;;5.25;2.25;;;;;;;;4845922;29;45251;-65
2023/08/08 08:11:42;;;;;;;;;3.00;1.25;;;;;;;;4846061;29;45494;-65
2023/08/08 08:14:08;;;;;;;;;2.75;2.75;;;;;;;;4845861;29;46874;-64
2023/08/08 08:16:34;;;;;;;;;1.75;1.75;;;;;;;;4845787;29;45209;-65
2023/08/08 08:18:59;;;;;;;;;3.00;1.50;;;;;;;;4845667;29;45661;-64
2023/08/08 08:21:24;;;;;;;;;2.50;2.00;;;;;;;;4846053;29;45345;-64
2023/08/08 08:23:50;;;;;;;;;1.50;1.50;;;;;;;;4845914;29;46080;-64
2023/08/08 08:26:15;;;;;;;;;2.00;2.00;;;;;;;;4845827;29;45206;-64
2023/08/08 08:28:40;;;;;;;;;2.50;2.50;;;;;;;;4845053;29;45342;-64
2023/08/08 08:31:06;;;;;;;;;1.50;1.50;;;;;;;;4845947;29;45450;-65
2023/08/08 08:33:31;;;;;;;;;3.00;3.00;;;;;;;;4845760;29;45478;-64
2023/08/08 08:35:56;;;;;;;;;1.50;1.00;;;;;;;;4845507;29;45390;-65
2023/08/08 08:38:21;;;;;;;;;2.00;2.00;;;;;;;;4845145;29;45340;-66
2023/08/08 08:40:48;;;;;;;;;3.75;2.75;;;;;;;;4845675;29;45310;-66
2023/08/08 08:43:15;;;;;;;;;3.75;2.00;;;;;;;;4845300;29;46469;-66
2023/08/08 08:45:42;;;;;;;;;5.50;2.00;;;;;;;;4845467;29;45411;-65
2023/08/08 08:48:10;;;;;;;;;2.00;2.00;;;;;;;;4845690;29;45309;-66
2023/08/08 08:50:36;;;;;;;;;2.00;2.00;;;;;;;;4845187;29;45784;-66
2023/08/08 08:53:01;;;;;;;;;2.00;2.00;;;;;;;;4845367;29;46712;-65
2023/08/08 08:55:27;;;;;;;;;3.00;2.00;;;;;;;;4845176;29;45423;-65
2023/08/08 08:57:52;;;;;;;;;1.75;1.75;;;;;;;;4845384;29;45452;-66
2023/08/08 09:00:18;;;;;;;;;3.75;2.75;;;;;;;;4845133;29;45429;-65
2023/08/08 09:02:43;;;;;;;;;3.50;2.00;;;;;;;;4845130;29;45363;-67
2023/08/08 09:05:08;;;;;;;;;2.00;2.00;;;;;;;;4845085;29;45364;-67
2023/08/08 09:07:35;;;;;;;;;2.00;2.00;;;;;;;;4845329;29;45359;-67
2023/08/08 09:10:00;;;;;;;;;3.00;1.00;;;;;;;;4844941;29;45505;-67
2023/08/08 09:12:26;;;;;;;;;5.00;2.00;;;;;;;;4844867;29;46406;-67
2023/08/08 09:14:56;;;;;;;;;1.50;1.50;;;;;;;;4845162;29;45347;-67
2023/08/08 09:17:21;;;;;;;;;3.50;1.25;;;;;;;;4845319;29;45351;-67
2023/08/08 09:19:46;;;;;;;;;1.75;1.25;;;;;;;;4845203;29;45300;-67
2023/08/08 09:22:12;;;;;;;;;2.00;2.00;;;;;;;;4844485;29;46775;-67
2023/08/08 09:24:39;;;;;;;;;2.00;2.00;;;;;;;;4844967;29;45427;-67
2023/08/08 09:27:05;;;;;;;;;2.00;2.00;;;;;;;;4844957;29;45320;-67
2023/08/08 09:29:31;;;;;;;;;1.00;1.00;;;;;;;;4845120;29;45372;-67
2023/08/08 09:31:56;;;;;;;;;3.00;0.50;;;;;;;;4844284;29;45552;-67
2023/08/08 09:34:24;;;;;;;;;5.50;1.00;;;;;;;;4844838;29;45432;-69
2023/08/08 09:36:49;;;;;;;;;2.00;1.00;;;;;;;;4844973;29;45449;-66
2023/08/08 09:39:16;;;;;;;;;4.00;1.00;;;;;;;;4845280;29;45334;-67
2023/08/08 09:41:41;;;;;;;;;1.00;0.50;;;;;;;;4844062;29;45507;-67
2023/08/08 09:44:08;;;;;;;;;0.25;0.25;;;;;;;;4844738;29;45307;-67
2023/08/08 09:46:34;;;;;;;;;0.75;0.75;;;;;;;;4844906;29;45464;-61
2023/08/08 09:49:01;;;;;;;;;1.00;1.00;;;;;;;;4843100;29;45416;-63
2023/08/08 09:51:26;;;;;;;;;1.00;1.00;;;;;;;;4843849;29;45682;-66
2023/08/08 09:53:52;;;;;;;;;2.00;0.75;;;;;;;;4843312;29;45296;-62
2023/08/08 09:56:18;;;;;;;;;1.25;1.25;;;;;;;;4843718;29;45384;-63
2023/08/08 09:58:44;;;;;;;;;4.00;2.00;;;;;;;;4843528;29;45314;-62
2023/08/08 10:01:12;;;;;;;;;5.00;5.00;;;;;;;;4843842;29;45330;-62
2023/08/08 10:03:38;;;;;;;;;0.25;0.00;;;;;;;;4843170;29;45432;-62
2023/08/08 10:06:03;;;;;;;;;1.00;1.00;;;;;;;;4844407;29;45484;-62
2023/08/08 10:08:29;;;;;;;;;1.00;1.00;;;;;;;;4843918;29;45494;-62
2023/08/08 10:10:55;;;;;;;;;0.75;0.75;;;;;;;;4844244;29;46591;-62
2023/08/08 10:13:21;;;;;;;;;2.25;1.00;;;;;;;;4843334;29;45507;-62
2023/08/08 10:15:46;;;;;;;;;2.00;2.00;;;;;;;;4845347;29;45442;-61
2023/08/08 10:18:12;;;;;;;;;1.50;1.00;;;;;;;;4847755;29;45379;-62
2023/08/08 10:20:37;;;;;;;;;1.50;1.00;;;;;;;;4846974;29;45524;-62
2023/08/08 10:23:03;;;;;;;;;1.00;1.00;;;;;;;;4847270;29;45387;-62
2023/08/08 10:25:30;;;;;;;;;2.50;2.50;;;;;;;;4847162;29;45651;-66
2023/08/08 10:28:05;;;;;;;;;1.00;1.00;;;;;;;;4847257;29;45363;-68
2023/08/08 10:30:41;;;;;;;;;1.00;1.00;;;;;;;;4847102;29;46241;-67
2023/08/08 10:33:14;;;;;;;;;1.25;1.25;;;;;;;;4847032;29;45516;-67
2023/08/08 10:35:40;;;;;;;;;1.00;1.00;;;;;;;;4846813;29;45407;-67
2023/08/08 10:38:08;;;;;;;;;1.50;1.50;;;;;;;;4847658;29;45488;-67
2023/08/08 10:40:33;;;;;;;;;1.00;1.00;;;;;;;;4846644;29;46795;-67
2023/08/08 10:42:58;;;;;;;;;3.75;1.00;;;;;;;;4843270;29;45402;-62
2023/08/08 10:45:28;;;;;;;;;2.25;0.25;;;;;;;;4846479;29;45889;-64
2023/08/08 10:47:54;;;;;;;;;1.00;1.00;;;;;;;;4849489;29;45919;-63
2023/08/08 10:50:23;;;;;;;;;0.50;0.00;;;;;;;;4844962;29;45674;-63
2023/08/08 10:52:54;;;;;;;;;0.50;0.50;;;;;;;;4846643;29;45467;-66
2023/08/08 10:55:25;;;;;;;;;1.00;1.00;;;;;;;;4846580;29;45345;-67
2023/08/08 10:58:04;;;;;;;;;1.00;0.33;;;;;;;;4846790;29;45535;-67
2023/08/08 11:00:31;;;;;;;;;2.75;1.00;;;;;;;;4846781;29;45253;-68
2023/08/08 11:02:57;;;;;;;;;1.00;1.00;;;;;;;;4846317;29;45457;-68
2023/08/08 11:05:23;;;;;;;;;0.25;0.25;;;;;;;;4846361;29;45399;-67
2023/08/08 11:07:48;;;;;;;;;1.00;1.00;;;;;;;;4846634;29;45456;-67
2023/08/08 11:10:14;;;;;;;;;0.33;0.33;;;;;;;;4846327;29;46555;-67
2023/08/08 11:12:39;;;;;;;;;1.00;0.33;;;;;;;;4846599;29;45444;-67
2023/08/08 11:15:04;;;;;;;;;0.25;0.25;;;;;;;;4846446;29;45409;-68
2023/08/08 11:17:31;;;;;;;;;0.00;0.00;;;;;;;;4846026;29;45441;-68
2023/08/08 11:19:57;;;;;;;;;0.25;0.25;;;;;;;;4846224;29;45533;-68
2023/08/08 11:22:25;;;;;;;;;1.00;1.00;;;;;;;;4845835;29;45436;-68
2023/08/08 11:24:51;;;;;;;;;0.67;0.67;;;;;;;;4846543;29;45287;-63
2023/08/08 11:27:16;;;;;;;;;2.00;2.00;;;;;;;;4845678;29;45531;-67
2023/08/08 11:29:51;;;;;;;;;2.75;1.00;;;;;;;;4846140;29;45498;-67
2023/08/08 11:32:16;;;;;;;;;0.25;0.25;;;;;;;;4845629;29;45392;-67
2023/08/08 11:34:42;;;;;;;;;0.75;0.75;;;;;;;;4846337;29;45678;-67
2023/08/08 11:37:08;;;;;;;;;0.75;0.75;;;;;;;;4846445;29;45465;-67
2023/08/08 11:39:33;;;;;;;;;0.00;0.00;;;;;;;;4845972;29;46276;-67
2023/08/08 11:41:59;;;;;;;;;0.50;0.50;;;;;;;;4846218;29;45342;-68
2023/08/08 11:44:24;;;;;;;;;1.00;1.00;;;;;;;;4845758;29;45418;-67
2023/08/08 11:46:49;;;;;;;;;0.00;0.00;;;;;;;;4846637;29;45313;-67
2023/08/08 11:49:15;;;;;;;;;3.25;1.00;;;;;;;;4845273;29;45630;-67
2023/08/08 11:51:42;;;;;;;;;0.00;0.00;;;;;;;;4846389;29;45387;-67
2023/08/08 11:54:08;;;;;;;;;2.00;1.00;;;;;;;;4846030;29;45417;-67
2023/08/08 11:56:34;;;;;;;;;0.25;0.00;;;;;;;;4846217;29;45417;-67
2023/08/08 11:58:59;;;;;;;;;0.25;0.25;;;;;;;;4845188;29;46057;-67
2023/08/08 12:01:25;;;;;;;;;0.25;0.25;;;;;;;;4846143;29;45185;-67
2023/08/08 12:03:50;;;;;;;;;0.00;0.00;;;;;;;;4845981;29;45353;-67
2023/08/08 12:06:16;;;;;;;;;0.25;0.00;;;;;;;;4846158;29;45247;-67
2023/08/08 12:08:44;;;;;;;;;1.25;0.00;;;;;;;;4845107;29;46034;-67
2023/08/08 12:11:13;;;;;;;;;1.00;1.00;;;;;;;;4845801;29;45348;-68
2023/08/08 12:13:40;;;;;;;;;0.75;0.75;;;;;;;;4845515;29;45366;-66
2023/08/08 12:16:06;;;;;;;;;4.00;1.00;;;;;;;;4846162;29;45541;-68
2023/08/08 12:18:32;;;;;;;;;0.50;0.50;;;;;;;;4845155;29;46634;-67
2023/08/08 12:20:57;;;;;;;;;1.00;1.00;;;;;;;;4845012;29;45435;-66
2023/08/08 12:23:23;;;;;;;;;1.00;1.00;;;;;;;;4845877;29;45468;-65
2023/08/08 12:25:48;;;;;;;;;2.00;2.00;;;;;;;;4846014;29;45438;-65
2023/08/08 12:28:13;;;;;;;;;3.33;3.33;;;;;;;;4845336;29;45417;-64
2023/08/08 12:30:38;;;;;;;;;1.50;1.50;;;;;;;;4845027;29;45390;-67
2023/08/08 12:33:04;;;;;;;;;1.50;1.00;;;;;;;;4845328;29;45312;-64
2023/08/08 12:35:29;;;;;;;;;1.00;1.00;;;;;;;;4845784;29;45434;-67
2023/08/08 12:37:54;;;;;;;;;1.50;0.00;;;;;;;;4844794;29;45365;-66
2023/08/08 12:40:19;;;;;;;;;1.00;1.00;;;;;;;;4844294;29;45460;-66
2023/08/08 12:42:44;;;;;;;;;1.33;1.33;;;;;;;;4845580;29;45317;-65
2023/08/08 12:45:10;;;;;;;;;1.00;1.00;;;;;;;;4845493;29;45305;-68
2023/08/08 12:47:37;;;;;;;;;1.25;1.00;;;;;;;;4843895;29;46361;-63
2023/08/08 12:50:03;;;;;;;;;1.00;1.00;;;;;;;;4844688;29;45297;-64
2023/08/08 12:52:28;;;;;;;;;2.00;0.25;;;;;;;;4844468;29;45460;-63
2023/08/08 12:54:53;;;;;;;;;0.00;0.00;;;;;;;;4845251;29;45519;-64
2023/08/08 12:57:18;;;;;;;;;0.00;0.00;;;;;;;;4845321;29;45652;-63
2023/08/08 12:59:43;;;;;;;;;1.00;1.00;;;;;;;;4844743;29;45329;-63
2023/08/08 13:02:09;;;;;;;;;1.25;1.25;;;;;;;;4844413;29;45347;-62
2023/08/08 13:04:34;;;;;;;;;0.25;0.25;;;;;;;;4845071;29;45417;-64
2023/08/08 13:06:59;;;;;;;;;2.00;2.00;;;;;;;;4844836;29;46812;-63
2023/08/08 13:09:24;;;;;;;;;2.00;1.00;;;;;;;;4844761;29;45418;-62
2023/08/08 13:11:50;;;;;;;;;1.50;0.25;;;;;;;;4844753;29;45487;-62
2023/08/08 13:14:16;;;;;;;;;2.50;0.00;;;;;;;;4844626;29;45509;-63
2023/08/08 13:16:41;;;;;;;;;1.00;1.00;;;;;;;;4844445;29;46963;-65
2023/08/08 13:19:06;;;;;;;;;0.50;0.50;;;;;;;;4844569;29;45416;-65
2023/08/08 13:21:31;;;;;;;;;0.50;0.00;;;;;;;;4844801;29;45390;-66
2023/08/08 13:23:57;;;;;;;;;1.00;1.00;;;;;;;;4844329;29;45525;-65
2023/08/08 13:26:25;;;;;;;;;0.25;0.25;;;;;;;;4844537;29;46628;-66
2023/08/08 13:28:50;;;;;;;;;1.00;1.00;;;;;;;;4844487;29;45511;-66
2023/08/08 13:31:16;;;;;;;;;0.00;0.00;;;;;;;;4844731;29;45419;-65
2023/08/08 13:33:41;;;;;;;;;0.75;0.75;;;;;;;;4844546;29;45318;-65
2023/08/08 13:36:07;;;;;;;;;0.50;0.00;;;;;;;;4844608;29;46068;-65
2023/08/08 13:38:32;;;;;;;;;1.00;0.00;;;;;;;;4844270;29;45418;-65
2023/08/08 13:40:57;;;;;;;;;1.00;1.00;;;;;;;;4844829;29;45476;-65
2023/08/08 13:43:23;;;;;;;;;2.00;1.00;;;;;;;;4844143;29;45550;-66
2023/08/08 13:45:49;;;;;;;;;0.25;0.25;;;;;;;;4844479;29;46285;-66
2023/08/08 13:48:14;;;;;;;;;1.25;0.75;;;;;;;;4843857;29;45379;-66
2023/08/08 13:50:39;;;;;;;;;2.50;1.00;;;;;;;;4844052;29;45387;-65
2023/08/08 13:53:05;;;;;;;;;2.50;2.50;;;;;;;;4844874;29;45338;-65
2023/08/08 13:55:30;;;;;;;;;1.50;0.50;;;;;;;;4843664;29;46116;-65
2023/08/08 13:57:55;;;;;;;;;1.50;0.25;;;;;;;;4844720;29;45254;-65
2023/08/08 14:00:21;;;;;;;;;0.00;0.00;;;;;;;;4843825;29;45323;-65
2023/08/08 14:02:46;;;;;;;;;1.00;1.00;;;;;;;;4844430;29;45375;-65
2023/08/08 14:05:12;;;;;;;;;3.00;1.50;;;;;;;;4843862;29;46641;-65
2023/08/08 14:07:37;;;;;;;;;0.00;0.00;;;;;;;;4844187;29;45455;-65
2023/08/08 14:10:03;;;;;;;;;1.00;1.00;;;;;;;;4844569;29;45302;-66
2023/08/08 14:12:29;;;;;;;;;2.50;1.00;;;;;;;;4844338;29;45374;-65
2023/08/08 14:14:54;;;;;;;;;2.00;2.00;;;;;;;;4843365;29;45401;-65
2023/08/08 14:17:19;;;;;;;;;2.00;0.75;;;;;;;;4844164;29;45358;-65
2023/08/08 14:19:44;;;;;;;;;1.25;1.25;;;;;;;;4844185;29;45374;-65
2023/08/08 14:22:12;;;;;;;;;1.00;1.00;;;;;;;;4844433;29;45443;-66
2023/08/08 14:24:38;;;;;;;;;1.00;1.00;;;;;;;;4843745;29;46665;-66
2023/08/08 14:27:03;;;;;;;;;1.50;1.00;;;;;;;;4843682;29;45285;-65
2023/08/08 14:29:28;;;;;;;;;1.75;1.75;;;;;;;;4839563;29;45342;-66
2023/08/08 14:31:53;;;;;;;;;2.75;2.00;;;;;;;;4825571;29;45398;-65
2023/08/08 14:34:19;;;;;;;;;1.00;1.00;;;;;;;;4826438;29;46176;-65